createdAt,value
2018-11-07T00:00:20.458Z,1009.7
2018-11-07T00:05:20.737Z,1009.8
2018-11-07T00:10:20.032Z,1009.9
2018-11-07T00:15:19.340Z,1009.9
2018-11-07T00:20:20.184Z,1009.9
2018-11-07T00:25:20.546Z,1009.8
2018-11-07T00:30:20.622Z,1009.9
2018-11-07T00:35:20.336Z,1009.9
2018-11-07T00:40:20.880Z,1009.9
2018-11-07T00:45:19.809Z,1009.9
2018-11-07T00:50:20.347Z,1010.1
2018-11-07T00:55:20.360Z,1010.1
2018-11-07T01:00:19.819Z,1010.2
2018-11-07T01:05:20.367Z,1010.1
2018-11-07T01:10:19.470Z,1010.1
2018-11-07T01:15:21.400Z,1010
2018-11-07T01:20:24.356Z,1010
2018-11-07T01:25:19.987Z,1010.1
2018-11-07T01:30:20.404Z,1010.2
2018-11-07T01:35:19.336Z,1010.2
2018-11-07T01:40:19.869Z,1010
2018-11-07T01:45:19.391Z,1010.2
2018-11-07T01:50:19.748Z,1010.1
2018-11-07T01:55:20.594Z,1010
2018-11-07T02:00:21.260Z,1009.9
2018-11-07T02:05:24.697Z,1009.8
2018-11-07T02:10:20.444Z,1009.8
2018-11-07T02:15:19.894Z,1009.9
2018-11-07T02:20:20.322Z,1010
2018-11-07T02:25:20.191Z,1009.9
2018-11-07T02:30:19.916Z,1010
2018-11-07T02:35:20.342Z,1010
2018-11-07T02:40:19.488Z,1010.1
2018-11-07T02:45:20.485Z,1010
2018-11-07T02:50:19.370Z,1010
2018-11-07T02:55:20.498Z,1010.1
2018-11-07T03:00:20.375Z,1010.1
2018-11-07T03:05:19.355Z,1010.1
2018-11-07T03:10:20.590Z,1010.1
2018-11-07T03:15:19.462Z,1010.1
2018-11-07T03:20:19.692Z,1010
2018-11-07T03:25:20.538Z,1010.1
2018-11-07T03:30:19.473Z,1010.1
2018-11-07T03:35:19.641Z,1010.1
2018-11-07T03:40:20.558Z,1010.1
2018-11-07T03:45:19.756Z,1010.2
2018-11-07T03:50:20.784Z,1010.1
2018-11-07T03:55:19.534Z,1010
2018-11-07T04:00:19.915Z,1010
2018-11-07T04:05:20.180Z,1010
2018-11-07T04:10:19.521Z,1010
2018-11-07T04:15:20.461Z,1009.9
2018-11-07T04:20:19.438Z,1010
2018-11-07T04:25:19.934Z,1009.9
2018-11-07T04:30:20.483Z,1009.8
2018-11-07T04:35:19.440Z,1009.7
2018-11-07T04:40:19.951Z,1009.8
2018-11-07T04:45:19.511Z,1009.7
2018-11-07T04:50:19.749Z,1009.8
2018-11-07T04:55:20.646Z,1009.7
2018-11-07T05:00:20.716Z,1009.7
2018-11-07T05:05:20.520Z,1009.8
2018-11-07T05:10:20.674Z,1009.9
2018-11-07T05:15:19.877Z,1009.8
2018-11-07T05:20:20.401Z,1009.8
2018-11-07T05:25:19.637Z,1009.9
2018-11-07T05:30:20.689Z,1009.8
2018-11-07T05:35:20.422Z,1009.8
2018-11-07T05:40:19.575Z,1010
2018-11-07T05:45:20.438Z,1010.1
2018-11-07T05:50:20.171Z,1010.1
2018-11-07T05:55:20.048Z,1010.2
2018-11-07T06:00:20.318Z,1010.2
2018-11-07T06:05:19.471Z,1010
2018-11-07T06:10:19.902Z,1010.1
2018-11-07T06:15:19.591Z,1010.2
2018-11-07T06:20:20.221Z,1010.3
2018-11-07T06:25:20.621Z,1010.2
2018-11-07T06:30:19.498Z,1010.2
2018-11-07T06:35:19.745Z,1010.2
2018-11-07T06:40:20.372Z,1010.3
2018-11-07T06:45:19.869Z,1010.3
2018-11-07T06:50:20.244Z,1010.2
2018-11-07T06:55:20.256Z,1010.1
2018-11-07T07:00:19.906Z,1010.2
2018-11-07T07:05:20.267Z,1010.3
2018-11-07T07:10:19.681Z,1010.3
2018-11-07T07:15:20.413Z,1010.2
2018-11-07T07:20:19.502Z,1010.1
2018-11-07T07:25:19.943Z,1010.2
2018-11-07T07:30:21.083Z,1010.1
2018-11-07T07:35:19.503Z,1010.2
2018-11-07T07:40:19.940Z,1010.2
2018-11-07T07:45:19.601Z,1010.3
2018-11-07T07:50:19.832Z,1010.3
2018-11-07T07:55:20.464Z,1010.3
2018-11-07T08:00:19.569Z,1010.3
2018-11-07T08:05:19.830Z,1010.2
2018-11-07T08:10:25.337Z,1010.3
2018-11-07T08:15:19.931Z,1010.3
2018-11-07T08:20:20.343Z,1010.4
2018-11-07T08:25:19.719Z,1010.3
2018-11-07T08:30:19.921Z,1010.3
2018-11-07T08:35:20.359Z,1010.3
2018-11-07T08:40:19.693Z,1010.3
2018-11-07T08:45:19.366Z,1010.2
2018-11-07T08:50:19.622Z,1010.2
2018-11-07T08:55:20.247Z,1010.2
2018-11-07T09:00:19.774Z,1010.1
2018-11-07T09:05:19.618Z,1010.3
2018-11-07T09:10:20.114Z,1010.3
2018-11-07T09:15:19.684Z,1010.1
2018-11-07T09:20:20.049Z,1010.1
2018-11-07T09:25:19.491Z,1010
2018-11-07T09:30:19.721Z,1010.1
2018-11-07T09:35:19.945Z,1010
2018-11-07T09:40:19.420Z,1010.1
2018-11-07T09:45:20.072Z,1010.2
2018-11-07T09:50:19.315Z,1010.1
2018-11-07T09:55:20.323Z,1010.3
2018-11-07T10:00:20.004Z,1010.2
2018-11-07T10:05:19.729Z,1010.2
2018-11-07T10:10:19.768Z,1010.2
2018-11-07T10:15:19.481Z,1010.2
2018-11-07T10:20:19.929Z,1010
2018-11-07T10:25:20.102Z,1010.1
2018-11-07T10:30:21.788Z,1010
2018-11-07T10:35:19.549Z,1010.1
2018-11-07T10:40:20.029Z,1010
2018-11-07T10:45:19.680Z,1010.1
2018-11-07T10:50:19.968Z,1010
2018-11-07T10:55:19.445Z,1009.9
2018-11-07T11:00:19.709Z,1009.9
2018-11-07T11:05:21.014Z,1009.9
2018-11-07T11:10:19.403Z,1009.8
2018-11-07T11:15:19.974Z,1009.8
2018-11-07T11:20:19.328Z,1009.8
2018-11-07T11:25:19.737Z,1009.9
2018-11-07T11:30:20.074Z,1009.8
2018-11-07T11:35:20.921Z,1009.7
2018-11-07T11:40:20.071Z,1009.8
2018-11-07T11:45:19.478Z,1009.9
2018-11-07T11:50:19.698Z,1009.8
2018-11-07T11:55:20.189Z,1009.8
2018-11-07T12:00:19.754Z,1009.8
2018-11-07T12:05:19.692Z,1009.7
2018-11-07T12:10:20.152Z,1009.7
2018-11-07T12:15:20.660Z,1009.7
2018-11-07T12:20:20.086Z,1009.7
2018-11-07T12:25:19.492Z,1009.7
2018-11-07T12:30:19.803Z,1009.7
2018-11-07T12:35:20.010Z,1009.6
2018-11-07T12:40:19.488Z,1009.7
2018-11-07T12:45:20.141Z,1009.7
2018-11-07T12:50:20.257Z,1009.7
2018-11-07T12:55:19.856Z,1009.7
2018-11-07T13:00:20.050Z,1009.7
2018-11-07T13:05:19.337Z,1009.7
2018-11-07T13:10:19.777Z,1009.6
2018-11-07T13:15:19.535Z,1009.7
2018-11-07T13:20:19.666Z,1009.7
2018-11-07T13:25:20.163Z,1009.7
2018-11-07T13:30:19.423Z,1009.8
2018-11-07T13:35:19.735Z,1009.7
2018-11-07T13:40:20.171Z,1009.8
2018-11-07T13:45:20.308Z,1009.8
2018-11-07T13:50:19.969Z,1009.8
2018-11-07T13:55:19.500Z,1009.8
2018-11-07T14:00:19.737Z,1009.9
2018-11-07T14:05:21.098Z,1010
2018-11-07T14:10:19.511Z,1010
2018-11-07T14:15:20.219Z,1010.1
2018-11-07T14:20:19.387Z,1010.2
2018-11-07T14:25:19.832Z,1010.3
2018-11-07T14:30:20.159Z,1010.4
2018-11-07T14:35:19.348Z,1010.4
2018-11-07T14:40:19.788Z,1010.5
2018-11-07T14:45:19.681Z,1010.6
2018-11-07T14:50:19.672Z,1010.7
2018-11-07T14:55:20.178Z,1010.8
2018-11-07T15:00:19.492Z,1010.9
2018-11-07T15:05:20.015Z,1010.9
2018-11-07T15:10:20.213Z,1010.9
2018-11-07T15:15:19.778Z,1010.9
2018-11-07T15:20:20.876Z,1010.9
2018-11-07T15:25:19.526Z,1010.9
2018-11-07T15:30:19.740Z,1010.9
2018-11-07T15:35:20.053Z,1010.9
2018-11-07T15:40:19.462Z,1011
2018-11-07T15:45:20.051Z,1010.9
2018-11-07T15:50:19.344Z,1011.1
2018-11-07T15:55:19.848Z,1011.1
2018-11-07T16:00:20.130Z,1011.2
2018-11-07T16:05:19.629Z,1011.2
2018-11-07T16:10:20.656Z,1011.2
2018-11-07T16:15:20.436Z,1011.4
2018-11-07T16:20:19.725Z,1011.5
2018-11-07T16:25:20.358Z,1011.6
2018-11-07T16:30:19.548Z,1011.6
2018-11-07T16:35:19.674Z,1011.6
2018-11-07T16:40:20.144Z,1011.8
2018-11-07T16:45:19.749Z,1011.9
2018-11-07T16:50:20.018Z,1011.9
2018-11-07T16:55:19.504Z,1011.8
2018-11-07T17:00:19.352Z,1011.9
2018-11-07T17:05:19.569Z,1011.9
2018-11-07T17:10:20.035Z,1012
2018-11-07T17:15:19.612Z,1012
2018-11-07T17:20:19.922Z,1012.1
2018-11-07T17:25:19.330Z,1012.2
2018-11-07T17:30:19.611Z,1012.2
2018-11-07T17:35:19.880Z,1012.3
2018-11-07T17:40:19.337Z,1012.3
2018-11-07T17:45:19.931Z,1012.4
2018-11-07T17:50:20.214Z,1012.4
2018-11-07T17:55:19.651Z,1012.4
2018-11-07T18:00:19.891Z,1012.4
2018-11-07T18:05:20.135Z,1012.4
2018-11-07T18:10:19.589Z,1012.5
2018-11-07T18:15:20.192Z,1012.6
2018-11-07T18:20:19.502Z,1012.6
2018-11-07T18:25:19.984Z,1012.7
2018-11-07T18:30:20.234Z,1012.8
2018-11-07T18:35:20.888Z,1012.9
2018-11-07T18:40:19.913Z,1012.9
2018-11-07T18:45:19.504Z,1013
2018-11-07T18:50:21.520Z,1012.9
2018-11-07T18:55:20.341Z,1013
2018-11-07T19:00:19.551Z,1013.1
2018-11-07T19:05:19.766Z,1013.2
2018-11-07T19:10:20.262Z,1013.3
2018-11-07T19:15:19.863Z,1013.4
2018-11-07T19:20:20.883Z,1013.3
2018-11-07T19:25:19.596Z,1013.3
2018-11-07T19:30:19.822Z,1013.4
2018-11-07T19:35:20.103Z,1013.5
2018-11-07T19:40:20.792Z,1013.5
2018-11-07T19:45:20.135Z,1013.6
2018-11-07T19:50:19.380Z,1013.6
2018-11-07T19:55:21.773Z,1013.7
2018-11-07T20:00:20.132Z,1013.7
2018-11-07T20:05:19.458Z,1013.9
2018-11-07T20:10:20.715Z,1014
2018-11-07T20:15:19.509Z,1014
2018-11-07T20:20:19.749Z,1014.1
2018-11-07T20:25:20.226Z,1014.1
2018-11-07T20:30:19.510Z,1014.3
2018-11-07T20:35:20.042Z,1014.3
2018-11-07T20:40:20.177Z,1014.4
2018-11-07T20:45:19.803Z,1014.4
2018-11-07T20:50:20.081Z,1014.4
2018-11-07T20:55:19.569Z,1014.5
2018-11-07T21:00:19.817Z,1014.6
2018-11-07T21:05:20.052Z,1014.6
2018-11-07T21:10:19.537Z,1014.6
2018-11-07T21:15:20.132Z,1014.7
2018-11-07T21:20:24.441Z,1014.7
2018-11-07T21:25:19.928Z,1014.7
2018-11-07T21:30:20.126Z,1014.8
2018-11-07T21:35:19.430Z,1014.8
2018-11-07T21:40:19.852Z,1014.9
2018-11-07T21:45:19.465Z,1014.9
2018-11-07T21:50:19.678Z,1015
2018-11-07T21:55:20.226Z,1015
2018-11-07T22:00:19.443Z,1015
2018-11-07T22:05:19.707Z,1015.1
2018-11-07T22:10:20.155Z,1015.2
2018-11-07T22:15:19.787Z,1015.3
2018-11-07T22:20:20.033Z,1015.3
2018-11-07T22:25:19.531Z,1015.2
2018-11-07T22:30:19.797Z,1015.3
2018-11-07T22:35:19.998Z,1015.3
2018-11-07T22:40:19.472Z,1015.3
2018-11-07T22:45:20.131Z,1015.3
2018-11-07T22:50:20.058Z,1015.4
2018-11-07T22:55:19.934Z,1015.4
2018-11-07T23:00:20.166Z,1015.5
2018-11-07T23:05:19.433Z,1015.6
2018-11-07T23:10:19.914Z,1015.7
2018-11-07T23:15:19.490Z,1015.7
2018-11-07T23:20:19.833Z,1015.8
2018-11-07T23:25:20.882Z,1015.9
2018-11-07T23:30:19.510Z,1015.8
2018-11-07T23:35:19.790Z,1015.9
2018-11-07T23:40:20.182Z,1015.9
2018-11-07T23:45:19.847Z,1016
2018-11-07T23:50:20.091Z,1016
2018-11-07T23:55:19.540Z,1016.1
